Weather observations for the past three days for
Nausori International Airport
| Date | Time (+12) | Wind (kph) | Vis. (km) | Weather | Sky Cond. | Temperature (ºC) | Relative Humidity | Wind Chill (°C) | Heat Index (°C) | Pressure | Precipitation (cm) | ||||||
|---|---|---|---|---|---|---|---|---|---|---|---|---|---|---|---|---|---|
| Air | Dwpt | 6 hour | altimeter (cm) | sea level (mb) | 1 hr | 3 hr | 6 hr | ||||||||||
| Max. | Min. | ||||||||||||||||
| 04 | 11:00 | E 13 | 0.00 | Mostly Cloudy | BKN020 BKN045 | 25 | 24 | 94% | 26 | 0 | 0.0 | ||||||
| 04 | 10:00 | E 15 | 0.00 | Light Rain | BKN018 BKN042 | 24 | 23 | 94% | 23 | 0 | 0.0 | ||||||
| 04 | 09:00 | E 11 | 0.00 | Light Rain | BKN018 BKN042 | 23 | 23 | 100% | 0 | 0.0 | |||||||
| 04 | 08:00 | Calm | 0.00 | Overcast | SCT006 BKN018 OVC040 | 22 | 22 | 100% | 0 | 0.0 | |||||||
| 04 | 07:00 | Calm | 0.00 | Overcast | SCT006 BKN018 OVC040 | 22 | 22 | 100% | 0 | 0.0 | |||||||
| 04 | 06:00 | Calm | 0.00 | Light Rain | SCT018 BKN040 OVC100 | 0 | 0 | 0% | 0 | 0.0 | |||||||
| 04 | 05:00 | Calm | 0.00 | Overcast | SCT005 BKN018 OVC040 | 22 | 21 | 94% | 0 | 0.0 | |||||||
| 04 | 04:00 | Calm | 0.00 | Overcast | BKN020 OVC042 | 22 | 21 | 94% | 0 | 0.0 | |||||||
| 04 | 03:00 | Calm | 0.00 | Overcast | SCT015 BKN020 OVC042 | 22 | 21 | 94% | 0 | 0.0 | |||||||
| 04 | 02:00 | Calm | 0.00 | Overcast | BKN020 OVC042 | 22 | 21 | 94% | 0 | 0.0 | |||||||
| 04 | 01:00 | Calm | 0.00 | Overcast | SCT015 BKN020 OVC042 | 22 | 21 | 94% | 0 | 0.0 | |||||||
| 04 | 00:00 | Calm | 0.00 | Light Drizzle | SCT015 BKN020 OVC042 | 22 | 21 | 94% | 0 | 0.0 | |||||||
| 03 | 23:00 | Calm | 0.00 | Overcast | SCT020 OVC042 | 22 | 21 | 94% | 0 | 0.0 | |||||||
| 03 | 22:00 | E 7 | 0.00 | Overcast | SCT020 OVC042 | 22 | 21 | 94% | 0 | 0.0 | |||||||
| 03 | 21:00 | E 7 | 0.00 | Overcast | SCT020 OVC042 | 23 | 21 | 89% | 0 | 0.0 | |||||||
| 03 | 20:00 | Vrbl 4 | 0.00 | Mostly Cloudy | BKN020 BKN042 | 23 | 21 | 89% | 0 | 0.0 | |||||||
| 03 | 19:00 | NE 11 | 0.00 | Mostly Cloudy | BKN020 BKN042 | 23 | 20 | 83% | 0 | 0.0 | |||||||
| 03 | 18:00 | E 13 | 0.00 | Mostly Cloudy | BKN020 BKN042 | 23 | 21 | 89% | 0 | 0.0 | |||||||
| 03 | 17:00 | NE 11 | 0.00 | Mostly Cloudy | FEW016 BKN020 BKN042 | 24 | 21 | 83% | 24 | 0 | 0.0 | ||||||
| 03 | 16:00 | E 15 | 0.00 | Mostly Cloudy | BKN018 BKN040 | 24 | 21 | 83% | 24 | 0 | 0.0 | ||||||
| 03 | 15:00 | E 17 | 0.00 | Mostly Cloudy | BKN018 BKN040 | 24 | 21 | 83% | 24 | 0 | 0.0 | ||||||
| 03 | 14:00 | E 17 | 0.00 | Mostly Cloudy | BKN018 BKN040 | 22 | 21 | 94% | 0 | 0.0 | |||||||
| 03 | 13:00 | E 15 | 0.00 | Mostly Cloudy | BKN018 BKN040 | 23 | 21 | 89% | 0 | 0.0 | |||||||
| 03 | 12:00 | E 9 | 0.00 | Mostly Cloudy | FEW005 BKN018 BKN040 | 23 | 22 | 94% | 0 | 0.0 | |||||||
| 03 | 11:00 | E 9 | 0.00 | Mostly Cloudy | SCT010 BKN018 BKN040 | 23 | 22 | 94% | 0 | 0.0 | |||||||
| 03 | 10:00 | E 13 | 0.00 | Mostly Cloudy | SCT010 BKN020 BKN042 | 23 | 22 | 94% | 0 | 0.0 | |||||||
| 03 | 09:00 | E 15 | 1.61 | Light Showers Rain | SCT010 BKN020 BKN042 | 23 | 0 | 0% | 0 | 0.0 | |||||||
| 03 | 08:00 | E 11 | 0.00 | Mostly Cloudy | SCT020 BKN045 | 23 | 21 | 89% | 0 | 0.0 | |||||||
| 03 | 07:00 | E 7 | 0.00 | Mostly Cloudy | SCT020 BKN045 | 22 | 21 | 94% | 0 | 0.0 | |||||||
| 03 | 06:00 | E 6 | 0.00 | Mostly Cloudy | SCT020 BKN045 | 22 | 21 | 94% | 0 | 0.0 | |||||||
| 03 | 05:00 | Vrbl 4 | 0.00 | Mostly Cloudy | SCT020 BKN045 | 21 | 21 | 100% | 0 | 0.0 | |||||||
| 03 | 04:00 | Vrbl 4 | 0.00 | Mostly Cloudy | SCT020 BKN045 | 21 | 20 | 94% | 0 | 0.0 | |||||||
| 03 | 03:00 | Calm | 0.00 | Mostly Cloudy | SCT020 BKN045 | 21 | 20 | 94% | 0 | 0.0 | |||||||
| 03 | 02:00 | Vrbl 4 | 0.00 | Mostly Cloudy | SCT020 BKN045 | 22 | 20 | 88% | 0 | 0.0 | |||||||
| 03 | 01:00 | Vrbl 4 | 0.00 | Mostly Cloudy | SCT020 BKN045 | 22 | 20 | 88% | 0 | 0.0 | |||||||
| 03 | 00:00 | E 7 | 0.00 | Mostly Cloudy | SCT020 BKN045 | 22 | 19 | 83% | 0 | 0.0 | |||||||
| 02 | 23:00 | E 11 | 0.00 | Mostly Cloudy | SCT020 BKN045 | 22 | 19 | 83% | 0 | 0.0 | |||||||
| 02 | 22:00 | E 9 | 0.00 | Mostly Cloudy | SCT020 BKN045 | 22 | 19 | 83% | 0 | 0.0 | |||||||
| 02 | 21:00 | E 15 | 0.00 | Mostly Cloudy | BKN020 BKN045 | 22 | 19 | 83% | 0 | 0.0 | |||||||
| 02 | 20:00 | E 15 | 0.00 | Mostly Cloudy | BKN020 BKN045 | 22 | 19 | 83% | 0 | 0.0 | |||||||
| 02 | 19:00 | E 20 | 0.00 | Mostly Cloudy | BKN020 BKN045 | 22 | 18 | 78% | 0 | 0.0 | |||||||
| 02 | 18:00 | E 15 | 0.00 | Mostly Cloudy | BKN020 BKN045 | 22 | 18 | 78% | 0 | 0.0 | |||||||
| 02 | 17:00 | E 19 | 0.00 | Mostly Cloudy | BKN020 BKN045 | 22 | 18 | 78% | 0 | 0.0 | |||||||
| 02 | 16:00 | E 24 | 0.00 | Mostly Cloudy | BKN020 BKN045 | 23 | 19 | 78% | 0 | 0.0 | |||||||
| 02 | 15:00 | E 20 | 0.00 | Mostly Cloudy | BKN020 BKN045 | 23 | 19 | 78% | 0 | 0.0 | |||||||
| 02 | 14:00 | E 24 | 0.00 | Mostly Cloudy | BKN020 BKN045 | 23 | 19 | 78% | 0 | 0.0 | |||||||
| 02 | 13:00 | E 19 | 0.00 | Mostly Cloudy | BKN020 BKN045 | 22 | 19 | 83% | 0 | 0.0 | |||||||
| 02 | 12:00 | E 19 | 0.00 | Mostly Cloudy | BKN020 BKN045 | 22 | 18 | 78% | 0 | 0.0 | |||||||
| 02 | 11:00 | E 11 | 0.00 | Mostly Cloudy | BKN020 BKN045 | 23 | 19 | 78% | 0 | 0.0 | |||||||
| 02 | 10:00 | E 26 | 0.00 | Mostly Cloudy | BKN020 BKN045 | 22 | 19 | 83% | 0 | 0.0 | |||||||
| 02 | 09:00 | E 22 | 0.00 | Mostly Cloudy | BKN020 BKN045 | 22 | 19 | 83% | 0 | 0.0 | |||||||
| 02 | 08:00 | SE 24 | 0.00 | Mostly Cloudy | BKN020 BKN045 | 22 | 19 | 83% | 0 | 0.0 | |||||||
| 02 | 07:00 | E 13 | 0.00 | Mostly Cloudy | BKN020 BKN045 | 22 | 19 | 83% | 0 | 0.0 | |||||||
| 02 | 06:00 | E 11 | 0.00 | Mostly Cloudy | SCT020 BKN045 | 21 | 19 | 88% | 0 | 0.0 | |||||||
| 02 | 05:00 | E 15 | 0.00 | Light Showers Rain | SCT020 BKN045 | 21 | 20 | 94% | 0 | 0.0 | |||||||
| 02 | 04:00 | E 13 | 0.00 | Mostly Cloudy | SCT022 BKN045 | 21 | 19 | 88% | 0 | 0.0 | |||||||
| 02 | 03:00 | Calm | 0.00 | Mostly Cloudy | BKN022 BKN045 | 20 | 19 | 94% | 0 | 0.0 | |||||||
| 02 | 02:00 | SE 6 | 0.00 | Mostly Cloudy | BKN022 BKN045 | 20 | 19 | 94% | 0 | 0.0 | |||||||
| 02 | 00:00 | E 7 | 0.00 | Mostly Cloudy | SCT022 BKN045 | 21 | 19 | 88% | 0 | 0.0 | |||||||
| 01 | 23:00 | E 7 | 0.00 | Mostly Cloudy | SCT022 BKN045 | 22 | 19 | 83% | 0 | 0.0 | |||||||
| 01 | 22:00 | E 13 | 0.00 | Mostly Cloudy | SCT022 BKN045 | 21 | 18 | 83% | 0 | 0.0 | |||||||
| 01 | 21:00 | E 13 | 0.00 | Mostly Cloudy | SCT022 BKN045 | 21 | 18 | 83% | 0 | 0.0 | |||||||
| 01 | 20:00 | E 13 | 0.00 | Mostly Cloudy | BKN020 BKN045 | 21 | 18 | 83% | 0 | 0.0 | |||||||
| 01 | 19:00 | E 9 | 0.00 | Mostly Cloudy | BKN018 BKN042 | 21 | 19 | 88% | 0 | 0.0 | |||||||
| 01 | 18:00 | S 7 | 0.00 | Light Showers Rain | BKN017 BKN042 | 21 | 20 | 94% | 0 | 0.0 | |||||||
| 01 | 17:00 | S 7 | 0.00 | Light Showers Rain | FEW010 BKN017 BKN042 | 20 | 20 | 100% | 0 | 0.0 | |||||||
| 01 | 16:00 | SE 13 | 0.00 | Light Showers Rain | FEW010 BKN017 BKN042 | 21 | 20 | 94% | 0 | 0.0 | |||||||
| 01 | 15:00 | SE 19 | 0.00 | Light Showers Rain | FEW011 BKN018 BKN042 | 21 | 20 | 94% | 0 | 0.0 | |||||||
| 01 | 14:00 | SE 13 | 0.00 | Light Showers Rain | FEW012 BKN018 BKN042 | 22 | 21 | 94% | 0 | 0.0 | |||||||
| 01 | 13:00 | E 20 | 0.00 | Mostly Cloudy | BKN022 BKN045 | 23 | 20 | 83% | 0 | 0.0 | |||||||
| 01 | 12:00 | E 26 | 0.00 | Mostly Cloudy | BKN022 BKN045 | 24 | 19 | 74% | 25 | 0 | 0.0 | ||||||
| Date | Time (+12) | Wind (kph) | Vis. (km) | Weather | Sky Cond. | Air | Dwpt | Max. | Min. | Relative Humidity | Wind Chill (°C) | Heat Index (°C) | altimeter (cm) | sea level (mb) | 1 hr | 3 hr | 6 hr |
| 6 hour | |||||||||||||||||
| Temperature (ºC) | Pressure | Precipitation (cm) | |||||||||||||||